createdAt,value
2019-03-08T00:02:25.257Z,2.10
2019-03-08T00:05:09.643Z,2.60
2019-03-08T00:07:55.405Z,2.50
2019-03-08T00:10:38.940Z,2.27
2019-03-08T00:13:23.717Z,2.80
2019-03-08T00:16:09.188Z,2.77
2019-03-08T00:18:54.199Z,3.00
2019-03-08T00:21:37.654Z,2.33
2019-03-08T00:24:23.056Z,2.67
2019-03-08T00:26:55.196Z,2.43
2019-03-08T00:29:40.032Z,2.37
2019-03-08T00:32:24.942Z,2.80
2019-03-08T00:35:09.458Z,2.53
2019-03-08T00:37:54.015Z,1.90
2019-03-08T00:40:38.599Z,2.30
2019-03-08T00:43:23.155Z,2.67
2019-03-08T00:46:08.217Z,2.77
2019-03-08T00:48:52.969Z,2.60
2019-03-08T00:54:44.901Z,2.60
2019-03-08T00:57:31.171Z,2.90
2019-03-08T01:00:15.939Z,2.97
2019-03-08T01:03:00.614Z,2.95
2019-03-08T01:05:44.268Z,3.20
2019-03-08T01:08:28.414Z,3.20
2019-03-08T01:11:13.195Z,3.13
2019-03-08T01:13:58.073Z,3.60
2019-03-08T01:16:43.386Z,4.00
2019-03-08T01:19:28.060Z,4.20
2019-03-08T01:22:12.396Z,3.90
2019-03-08T01:24:57.251Z,3.83
2019-03-08T01:28:04.304Z,4.07
2019-03-08T01:30:48.566Z,4.20
2019-03-08T01:33:34.800Z,4.40
2019-03-08T01:36:18.349Z,4.57
2019-03-08T01:39:04.504Z,4.63
2019-03-08T01:41:38.054Z,5.33
2019-03-08T01:44:36.318Z,5.78
2019-03-08T01:47:20.775Z,5.03
2019-03-08T01:50:04.590Z,5.13
2019-03-08T01:52:49.424Z,4.73
2019-03-08T01:55:33.444Z,4.33
2019-03-08T01:58:18.978Z,3.80
2019-03-08T02:01:02.961Z,4.30
2019-03-08T02:03:47.406Z,3.30
2019-03-08T02:06:32.395Z,3.20
2019-03-08T02:09:16.439Z,3.30
2019-03-08T02:12:00.976Z,2.70
2019-03-08T02:14:44.954Z,2.80
2019-03-08T02:17:29.504Z,2.70
2019-03-08T02:20:14.977Z,2.70
2019-03-08T02:22:59.623Z,2.50
2019-03-08T02:25:45.571Z,2.67
2019-03-08T02:28:31.064Z,2.92
2019-03-08T02:31:16.207Z,2.90
2019-03-08T02:34:01.481Z,3.37
2019-03-08T02:36:46.185Z,3.20
2019-03-08T02:39:30.680Z,3.65
2019-03-08T02:42:15.183Z,3.73
2019-03-08T02:44:59.135Z,3.63
2019-03-08T02:47:43.806Z,4.37
2019-03-08T02:50:27.640Z,4.60
2019-03-08T02:53:13.576Z,4.00
2019-03-08T02:55:59.066Z,4.05
2019-03-08T02:58:44.412Z,4.13
2019-03-08T03:01:28.959Z,3.98
2019-03-08T03:04:13.598Z,4.03
2019-03-08T03:06:58.961Z,4.17
2019-03-08T03:09:42.883Z,4.03
2019-03-08T03:12:27.887Z,3.37
2019-03-08T03:15:13.441Z,3.20
2019-03-08T03:17:59.461Z,3.83
2019-03-08T03:20:43.053Z,3.80
2019-03-08T03:23:29.873Z,3.80
2019-03-08T03:26:15.341Z,3.62
2019-03-08T03:29:01.633Z,3.22
2019-03-08T03:31:47.096Z,3.57
2019-03-08T03:37:21.650Z,2.93
2019-03-08T03:40:07.540Z,2.80
2019-03-08T03:42:53.570Z,2.67
2019-03-08T03:45:38.057Z,2.23
2019-03-08T03:48:23.015Z,2.40
2019-03-08T03:53:35.159Z,2.37
2019-03-08T03:56:20.255Z,2.30
2019-03-08T03:59:04.396Z,2.37
2019-03-08T04:01:50.230Z,2.30
2019-03-08T04:04:35.649Z,2.60
2019-03-08T04:07:08.993Z,2.23
2019-03-08T04:09:54.230Z,2.53
2019-03-08T04:12:26.355Z,2.30
2019-03-08T04:15:11.908Z,2.53
2019-03-08T04:17:57.729Z,2.40
2019-03-08T04:20:42.993Z,2.47
2019-03-08T04:23:27.695Z,2.33
2019-03-08T04:26:11.809Z,2.47
2019-03-08T04:28:56.721Z,2.27
2019-03-08T04:31:42.761Z,3.15
2019-03-08T04:34:26.666Z,2.33
2019-03-08T04:37:11.452Z,2.63
2019-03-08T04:39:55.358Z,2.90
2019-03-08T04:42:40.421Z,2.40
2019-03-08T04:45:25.367Z,2.37
2019-03-08T04:48:11.521Z,2.50
2019-03-08T04:50:56.769Z,2.90
2019-03-08T04:53:42.117Z,2.03
2019-03-08T04:56:27.248Z,1.90
2019-03-08T04:59:13.342Z,1.47
2019-03-08T05:01:58.183Z,1.57
2019-03-08T05:04:30.767Z,1.75
2019-03-08T05:07:16.496Z,1.47
2019-03-08T05:13:07.149Z,1.53
2019-03-08T05:15:51.632Z,1.10
2019-03-08T05:18:36.414Z,1.47
2019-03-08T05:21:20.583Z,1.10
2019-03-08T05:24:05.485Z,1.17
2019-03-08T05:26:49.090Z,1.10
2019-03-08T05:29:34.063Z,1.23
2019-03-08T05:32:19.762Z,1.80
2019-03-08T05:35:05.257Z,1.50
2019-03-08T05:37:49.075Z,1.80
2019-03-08T05:40:33.859Z,1.50
2019-03-08T05:43:17.878Z,1.87
2019-03-08T05:46:03.234Z,2.17
2019-03-08T05:48:48.346Z,1.35
2019-03-08T05:51:34.488Z,2.50
2019-03-08T05:54:19.768Z,1.90
2019-03-08T05:57:03.898Z,2.15
2019-03-08T05:59:48.355Z,1.50
2019-03-08T06:02:33.670Z,2.20
2019-03-08T06:05:18.752Z,1.97
2019-03-08T06:08:03.396Z,2.37
2019-03-08T06:10:47.697Z,2.43
2019-03-08T06:13:19.920Z,2.70
2019-03-08T06:16:04.525Z,2.57
2019-03-08T06:21:36.268Z,4.10
2019-03-08T06:24:21.062Z,3.07
2019-03-08T06:27:06.903Z,3.40
2019-03-08T06:29:52.466Z,2.72
2019-03-08T06:32:37.699Z,3.10
2019-03-08T06:35:22.059Z,3.33
2019-03-08T06:38:06.514Z,3.60
2019-03-08T06:40:51.617Z,3.37
2019-03-08T06:43:36.574Z,4.03
2019-03-08T06:46:21.135Z,4.60
2019-03-08T06:49:04.917Z,4.90
2019-03-08T06:51:49.806Z,4.30
2019-03-08T06:54:35.219Z,4.55
2019-03-08T06:57:20.494Z,5.53
2019-03-08T07:00:27.119Z,6.17
2019-03-08T07:03:12.485Z,4.67
2019-03-08T07:05:57.403Z,3.53
2019-03-08T07:08:29.864Z,4.50
2019-03-08T07:11:14.693Z,4.90
2019-03-08T07:13:59.444Z,4.50
2019-03-08T07:16:45.825Z,4.80
2019-03-08T07:19:40.315Z,4.87
2019-03-08T07:22:36.115Z,5.63
2019-03-08T07:25:38.231Z,5.63
2019-03-08T07:28:41.305Z,5.47
2019-03-08T07:31:30.427Z,5.17
2019-03-08T07:34:34.536Z,6.87
2019-03-08T07:37:35.754Z,5.23
2019-03-08T07:43:48.342Z,5.03
2019-03-08T07:49:55.342Z,6.13
2019-03-08T07:52:59.775Z,7.40
2019-03-08T07:55:41.284Z,6.70
2019-03-08T07:58:45.925Z,6.90
2019-03-08T08:01:51.604Z,6.70
2019-03-08T08:05:00.765Z,5.72
2019-03-08T08:07:50.764Z,6.10
2019-03-08T08:10:59.841Z,5.90
2019-03-08T08:13:52.419Z,7.13
2019-03-08T08:16:56.072Z,5.58
2019-03-08T08:20:01.018Z,4.33
2019-03-08T08:23:05.124Z,4.33
2019-03-08T08:29:00.099Z,5.00
2019-03-08T08:31:57.638Z,4.37
2019-03-08T08:35:02.311Z,3.87
2019-03-08T08:38:19.470Z,3.60
2019-03-08T08:41:20.800Z,3.53
2019-03-08T08:47:32.886Z,3.67
2019-03-08T08:50:36.740Z,4.13
2019-03-08T08:53:29.863Z,3.73
2019-03-08T08:56:25.174Z,3.97
2019-03-08T08:59:17.414Z,3.90
2019-03-08T09:02:23.037Z,3.70
2019-03-08T09:05:17.408Z,4.00
2019-03-08T09:08:24.220Z,3.47
2019-03-08T09:11:18.079Z,3.52
2019-03-08T09:14:17.154Z,4.22
2019-03-08T09:20:29.880Z,3.47
2019-03-08T09:23:24.812Z,3.80
2019-03-08T09:26:27.064Z,3.63
2019-03-08T09:29:40.846Z,3.25
2019-03-08T09:32:25.950Z,3.77
2019-03-08T09:35:22.734Z,3.47
2019-03-08T09:38:41.128Z,3.87
2019-03-08T09:41:45.477Z,3.72
2019-03-08T09:44:51.581Z,3.80
2019-03-08T09:48:02.130Z,3.12
2019-03-08T09:51:01.810Z,3.90
2019-03-08T09:53:58.939Z,3.17
2019-03-08T09:57:02.131Z,3.53
2019-03-08T09:59:59.303Z,3.00
2019-03-08T10:09:45.625Z,3.53
2019-03-08T10:12:56.932Z,3.22
2019-03-08T10:16:03.853Z,3.77
2019-03-08T10:22:29.534Z,3.33
2019-03-08T10:25:34.159Z,4.43
2019-03-08T10:28:31.351Z,3.90
2019-03-08T10:35:02.599Z,4.33
2019-03-08T10:38:11.178Z,3.40
2019-03-08T10:41:09.795Z,3.37
2019-03-08T10:44:15.525Z,3.27
2019-03-08T10:47:24.680Z,3.52
2019-03-08T10:53:37.001Z,2.37
2019-03-08T10:59:27.578Z,3.02
2019-03-08T11:05:06.963Z,3.13
2019-03-08T11:08:01.924Z,3.50
2019-03-08T11:11:06.104Z,2.83
2019-03-08T11:16:52.411Z,3.27
2019-03-08T11:23:07.076Z,3.47
2019-03-08T11:26:11.877Z,3.80
2019-03-08T11:29:11.346Z,3.00
2019-03-08T11:32:22.838Z,3.47
2019-03-08T11:35:40.784Z,3.53
2019-03-08T11:38:43.158Z,3.70
2019-03-08T11:44:55.693Z,3.85
2019-03-08T11:47:58.546Z,3.60
2019-03-08T11:54:11.575Z,4.13
2019-03-08T11:57:06.003Z,3.60
2019-03-08T12:00:10.059Z,3.42
2019-03-08T12:03:01.086Z,3.42
2019-03-08T12:06:04.775Z,3.98
2019-03-08T12:12:15.965Z,3.58
2019-03-08T12:15:25.410Z,3.10
2019-03-08T12:18:31.389Z,3.40
2019-03-08T12:21:35.812Z,4.60
2019-03-08T12:27:08.907Z,3.93
2019-03-08T12:30:13.096Z,4.10
2019-03-08T12:36:11.409Z,3.40
2019-03-08T12:39:14.645Z,2.83
2019-03-08T12:42:18.814Z,3.95
2019-03-08T12:45:23.905Z,3.35
2019-03-08T12:48:30.088Z,3.17
2019-03-08T12:51:39.092Z,3.25
2019-03-08T12:54:48.421Z,2.93
2019-03-08T12:57:52.318Z,2.73
2019-03-08T13:00:48.807Z,2.50
2019-03-08T13:03:52.974Z,3.13
2019-03-08T13:06:56.684Z,2.30
2019-03-08T13:09:46.927Z,2.07
2019-03-08T13:12:19.455Z,2.87
2019-03-08T13:15:13.069Z,2.75
2019-03-08T13:17:45.544Z,2.43
2019-03-08T13:20:30.375Z,3.03
2019-03-08T13:23:15.519Z,2.10
2019-03-08T13:26:00.485Z,2.97
2019-03-08T13:34:24.984Z,2.97
2019-03-08T13:36:57.182Z,2.90
2019-03-08T13:39:43.102Z,3.03
2019-03-08T13:42:28.600Z,4.13
2019-03-08T13:45:00.806Z,2.70
2019-03-08T13:47:45.164Z,2.75
2019-03-08T13:50:29.516Z,3.43
2019-03-08T13:53:02.706Z,3.17
2019-03-08T13:58:39.631Z,2.23
2019-03-08T14:01:24.347Z,3.30
2019-03-08T14:04:08.520Z,3.10
2019-03-08T14:09:59.048Z,2.40
2019-03-08T14:12:31.301Z,2.30
2019-03-08T14:15:12.232Z,2.03
2019-03-08T14:17:58.066Z,1.97
2019-03-08T14:20:42.505Z,1.77
2019-03-08T14:23:27.465Z,2.13
2019-03-08T14:26:11.672Z,2.10
2019-03-08T14:28:57.539Z,2.43
2019-03-08T14:34:39.390Z,2.47
2019-03-08T14:37:42.936Z,3.13
2019-03-08T14:40:47.039Z,2.30
2019-03-08T14:43:53.852Z,2.47
2019-03-08T14:46:53.080Z,2.30
2019-03-08T14:49:50.425Z,2.37
2019-03-08T14:52:34.813Z,2.73
2019-03-08T14:55:22.654Z,2.80
2019-03-08T14:58:07.220Z,2.93
2019-03-08T15:00:52.188Z,2.80
2019-03-08T15:03:43.266Z,3.00
2019-03-08T15:06:28.445Z,2.70
2019-03-08T15:12:16.736Z,2.77
2019-03-08T15:15:02.258Z,2.67
2019-03-08T15:17:49.750Z,2.80
2019-03-08T15:20:35.508Z,2.40
2019-03-08T15:23:19.327Z,2.40
2019-03-08T15:26:04.215Z,2.70
2019-03-08T15:28:50.422Z,2.50
2019-03-08T15:31:22.671Z,2.70
2019-03-08T15:34:07.819Z,2.40
2019-03-08T15:36:51.808Z,2.47
2019-03-08T15:39:36.695Z,2.77
2019-03-08T15:42:21.516Z,2.67
2019-03-08T15:45:06.091Z,2.37
2019-03-08T15:47:52.756Z,2.30
2019-03-08T15:50:38.625Z,1.97
2019-03-08T15:53:22.158Z,2.07
2019-03-08T15:56:07.975Z,2.53
2019-03-08T15:58:52.698Z,3.77
2019-03-08T16:01:37.316Z,2.63
2019-03-08T16:04:22.743Z,2.30
2019-03-08T16:07:07.256Z,2.22
2019-03-08T16:12:45.780Z,2.00
2019-03-08T16:18:17.889Z,2.43
2019-03-08T16:20:50.167Z,2.02
2019-03-08T16:23:34.167Z,2.43
2019-03-08T16:26:21.196Z,2.50
2019-03-08T16:29:04.435Z,2.07
2019-03-08T16:34:52.172Z,2.27
2019-03-08T16:38:00.294Z,2.10
2019-03-08T16:40:52.063Z,1.90
2019-03-08T16:46:31.353Z,2.23
2019-03-08T16:49:34.569Z,2.60
2019-03-08T16:55:44.772Z,2.00
2019-03-08T16:58:49.366Z,2.90
2019-03-08T17:01:55.225Z,2.77
2019-03-08T17:04:50.772Z,4.45
2019-03-08T17:07:47.517Z,4.67
2019-03-08T17:10:53.912Z,4.03
2019-03-08T17:13:57.304Z,5.27
2019-03-08T17:17:04.802Z,4.07
2019-03-08T17:20:12.270Z,4.17
2019-03-08T17:26:15.239Z,3.47
2019-03-08T17:29:18.735Z,4.43
2019-03-08T17:32:11.599Z,6.77
2019-03-08T17:35:02.980Z,7.70
2019-03-08T17:37:54.234Z,6.85
2019-03-08T17:44:07.187Z,5.47
2019-03-08T17:47:16.494Z,5.63
2019-03-08T17:50:17.854Z,5.80
2019-03-08T17:56:29.121Z,5.23
2019-03-08T18:02:41.477Z,5.67
2019-03-08T18:05:45.695Z,5.03
2019-03-08T18:12:17.382Z,5.93
2019-03-08T18:15:21.809Z,7.10
2019-03-08T18:18:27.775Z,6.80
2019-03-08T18:21:31.785Z,7.57
2019-03-08T18:24:41.426Z,7.87
2019-03-08T18:27:41.962Z,9.73
2019-03-08T18:30:38.394Z,13.68
2019-03-08T18:33:42.118Z,16.23
2019-03-08T18:36:33.150Z,13.17
2019-03-08T18:39:37.156Z,13.10
2019-03-08T18:42:40.082Z,11.70
2019-03-08T18:45:45.691Z,9.13
2019-03-08T18:48:35.778Z,7.90
2019-03-08T18:51:26.913Z,6.62
2019-03-08T18:54:21.990Z,5.23
2019-03-08T18:57:26.439Z,4.97
2019-03-08T19:00:31.150Z,5.50
2019-03-08T19:03:34.973Z,5.10
2019-03-08T19:06:26.692Z,4.73
2019-03-08T19:09:42.577Z,4.50
2019-03-08T19:12:46.174Z,4.40
2019-03-08T19:15:53.203Z,4.90
2019-03-08T19:18:45.942Z,4.63
2019-03-08T19:32:44.390Z,4.03
2019-03-08T19:38:58.104Z,5.27
2019-03-08T19:41:58.892Z,4.27
2019-03-08T19:44:53.783Z,5.53
2019-03-08T19:47:56.730Z,3.87
2019-03-08T19:51:02.078Z,4.80
2019-03-08T19:53:53.310Z,3.77
2019-03-08T19:56:44.743Z,4.07
2019-03-08T19:59:36.935Z,4.83
2019-03-08T20:02:31.069Z,5.57
2019-03-08T20:05:22.213Z,5.40
2019-03-08T20:11:33.911Z,4.73
2019-03-08T20:17:24.735Z,3.93
2019-03-08T20:23:35.710Z,4.20
2019-03-08T20:32:08.366Z,3.07
2019-03-08T20:37:49.765Z,3.00
2019-03-08T20:43:38.186Z,3.10
2019-03-08T20:49:17.063Z,3.70
2019-03-08T20:52:01.154Z,3.40
2019-03-08T20:54:34.505Z,4.20
2019-03-08T20:59:53.761Z,3.97
2019-03-08T21:02:26.253Z,3.00
2019-03-08T21:05:11.359Z,2.70
2019-03-08T21:07:55.680Z,3.27
2019-03-08T21:10:40.949Z,3.50
2019-03-08T21:13:26.466Z,3.40
2019-03-08T21:16:11.238Z,2.80
2019-03-08T21:21:41.817Z,3.10
2019-03-08T21:24:27.285Z,3.13
2019-03-08T21:27:11.316Z,3.80
2019-03-08T21:29:55.853Z,4.00
2019-03-08T21:35:29.191Z,3.37
2019-03-08T21:38:13.892Z,3.97
2019-03-08T21:40:59.309Z,3.23
2019-03-08T21:43:43.597Z,3.42
2019-03-08T21:46:28.789Z,3.20
2019-03-08T21:49:14.357Z,3.17
2019-03-08T21:52:00.294Z,3.63
2019-03-08T21:54:45.672Z,3.50
2019-03-08T21:57:30.557Z,3.12
2019-03-08T22:00:02.994Z,4.13
2019-03-08T22:03:01.531Z,3.37
2019-03-08T22:05:45.849Z,4.47
2019-03-08T22:11:37.033Z,3.57
2019-03-08T22:14:21.277Z,4.97
2019-03-08T22:17:06.806Z,3.67
2019-03-08T22:19:52.104Z,3.83
2019-03-08T22:22:37.234Z,4.03
2019-03-08T22:25:22.932Z,3.60
2019-03-08T22:28:06.985Z,4.00
2019-03-08T22:33:28.058Z,4.17
2019-03-08T22:36:12.812Z,3.50
2019-03-08T22:39:01.795Z,4.42
2019-03-08T22:41:46.846Z,4.50
2019-03-08T22:44:32.534Z,3.50
2019-03-08T22:47:16.544Z,3.90
2019-03-08T22:49:49.221Z,3.77
2019-03-08T22:52:34.139Z,4.40
2019-03-08T22:55:18.410Z,4.60
2019-03-08T22:57:50.846Z,3.37
2019-03-08T23:00:54.655Z,3.83
2019-03-08T23:03:51.988Z,3.67
2019-03-08T23:06:36.760Z,3.90
2019-03-08T23:09:21.042Z,3.70
2019-03-08T23:17:20.609Z,4.00
2019-03-08T23:20:05.082Z,4.37
2019-03-08T23:22:49.983Z,4.20
2019-03-08T23:25:35.760Z,4.43
2019-03-08T23:31:43.452Z,4.28
2019-03-08T23:34:28.382Z,4.87
2019-03-08T23:37:12.313Z,4.60
2019-03-08T23:39:57.943Z,4.43
2019-03-08T23:42:42.161Z,5.33
2019-03-08T23:48:13.153Z,6.03
2019-03-08T23:53:44.708Z,7.07
2019-03-08T23:56:28.770Z,7.90
2019-03-08T23:59:13.067Z,8.30
